Time;durP1;ratioP1;P1;durP2;ratioP2;P2;SDS_P1;SDS_P2;PMS_P1;PMS_P2;Temp;Humidity;BMP_temperature;BMP_pressure;BME280_temperature;BME280_humidity;BME280_pressure;Samples;Min_cycle;Max_cycle;Signal;HPM_P1;HPM_P2
2022/07/01 00:01:44;;;;;;;1.63;0.82;;;15.00;99.90;;;;;;6195256;23;20019;-86
2022/07/01 00:04:10;;;;;;;2.38;1.60;;;15.10;99.90;;;;;;6220989;23;20473;-87
2022/07/01 00:06:37;;;;;;;2.58;1.08;;;15.10;99.90;;;;;;6220787;23;20453;-90
2022/07/01 00:09:04;;;;;;;;;;;15.10;99.90;;;;;;6196073;23;20026;-86
2022/07/01 00:11:33;;;;;;;1.35;0.93;;;15.10;99.90;;;;;;6195530;23;19981;-86
2022/07/01 00:13:59;;;;;;;1.88;1.20;;;15.10;99.90;;;;;;6195277;23;20016;-86
2022/07/01 00:16:24;;;;;;;6.27;1.90;;;15.10;99.90;;;;;;6220214;23;20020;-86
2022/07/01 00:18:50;;;;;;;1.38;0.95;;;15.10;99.90;;;;;;6220160;23;20100;-86
2022/07/01 00:21:16;;;;;;;1.53;1.17;;;15.10;99.90;;;;;;6195743;23;20016;-86
2022/07/01 00:23:42;;;;;;;2.60;1.93;;;15.20;99.90;;;;;;6170476;23;20016;-86
2022/07/01 00:26:08;;;;;;;1.37;1.10;;;15.20;99.90;;;;;;6171007;23;20024;-86
2022/07/01 00:28:34;;;;;;;2.85;1.33;;;15.10;99.90;;;;;;6220491;23;20282;-86
2022/07/01 00:30:59;;;;;;;1.67;0.93;;;15.10;99.90;;;;;;6220413;23;20329;-86
2022/07/01 00:33:25;;;;;;;2.40;1.20;;;15.10;99.90;;;;;;6170901;23;20336;-86
2022/07/01 00:35:52;;;;;;;3.40;1.20;;;15.10;99.90;;;;;;6195339;23;20341;-86
2022/07/01 00:38:18;;;;;;;1.65;0.95;;;15.10;99.90;;;;;;6195601;23;20012;-86
2022/07/01 00:40:43;;;;;;;1.43;1.10;;;15.20;99.90;;;;;;6195502;23;20063;-86
2022/07/01 00:43:09;;;;;;;3.23;1.27;;;15.10;99.90;;;;;;6220180;23;20466;-86
2022/07/01 00:45:34;;;;;;;0.80;0.70;;;15.20;99.90;;;;;;6195729;23;20031;-86
2022/07/01 00:48:00;;;;;;;2.07;1.27;;;15.10;99.90;;;;;;6195398;23;20043;-86
2022/07/01 00:50:26;;;;;;;4.38;1.70;;;15.10;99.90;;;;;;6194934;23;20016;-86
2022/07/01 00:52:52;;;;;;;2.27;1.90;;;15.20;99.90;;;;;;6195439;23;20318;-86
2022/07/01 00:55:18;;;;;;;4.40;1.65;;;15.10;99.90;;;;;;6195356;23;20283;-86
2022/07/01 00:57:44;;;;;;;4.05;1.83;;;15.10;99.90;;;;;;6220166;23;20059;-91
2022/07/01 01:00:15;;;;;;;;;;;15.10;99.90;;;;;;6195308;23;20013;-86
2022/07/01 01:02:41;;;;;;;0.93;0.63;;;15.10;99.90;;;;;;6220314;23;19943;-86
2022/07/01 01:05:10;;;;;;;3.40;0.70;;;15.10;99.90;;;;;;6169968;23;20016;-87
2022/07/01 01:07:36;;;;;;;1.00;0.65;;;15.10;99.90;;;;;;6195162;23;20456;-86
2022/07/01 01:10:02;;;;;;;2.93;0.73;;;15.10;99.90;;;;;;6170240;23;20027;-86
2022/07/01 01:12:29;;;;;;;0.95;0.45;;;15.00;99.90;;;;;;6194938;23;20437;-86
2022/07/01 01:14:56;;;;;;;1.92;0.60;;;15.10;99.90;;;;;;6219844;23;20095;-86
2022/07/01 01:17:22;;;;;;;1.38;0.70;;;15.10;99.90;;;;;;6194912;23;20340;-86
2022/07/01 01:19:49;;;;;;;2.58;0.77;;;15.00;99.90;;;;;;6220184;23;20024;-87
2022/07/01 01:22:16;;;;;;;0.43;0.43;;;15.00;99.90;;;;;;6194813;23;20448;-86
2022/07/01 01:24:43;;;;;;;1.70;0.57;;;15.00;99.90;;;;;;6220010;23;20024;-86
2022/07/01 01:27:09;;;;;;;0.40;0.40;;;15.00;99.90;;;;;;6194785;23;20062;-86
2022/07/01 01:29:38;;;;;;;0.83;0.50;;;15.00;99.90;;;;;;6219922;23;20071;-86
2022/07/01 01:32:05;;;;;;;1.42;0.70;;;15.00;99.90;;;;;;6219529;23;20016;-86
2022/07/01 01:34:32;;;;;;;0.70;0.43;;;15.00;99.90;;;;;;6219883;23;20348;-86
2022/07/01 01:36:58;;;;;;;0.60;0.60;;;15.00;99.90;;;;;;6194646;23;20008;-87
2022/07/01 01:39:24;;;;;;;0.45;0.45;;;15.00;99.90;;;;;;6219625;23;20026;-86
2022/07/01 01:41:50;;;;;;;0.50;0.50;;;15.00;99.90;;;;;;6194584;23;20425;-88
2022/07/01 01:44:16;;;;;;;0.68;0.68;;;15.00;99.90;;;;;;6219845;23;20719;-86
2022/07/01 01:46:41;;;;;;;0.40;0.40;;;15.00;99.90;;;;;;6194733;23;20016;-86
2022/07/01 01:49:08;;;;;;;1.02;0.55;;;15.00;99.90;;;;;;6219466;23;20100;-86
2022/07/01 01:51:33;;;;;;;0.63;0.60;;;15.00;99.90;;;;;;6219614;23;20024;-86
2022/07/01 01:54:00;;;;;;;2.07;0.60;;;15.00;99.90;;;;;;6194490;23;20069;-86
2022/07/01 01:56:26;;;;;;;;;;;15.00;99.90;;;;;;6194832;23;20545;-86
2022/07/01 01:58:52;;;;;;;1.50;0.50;;;15.00;99.90;;;;;;6194274;23;19916;-88
2022/07/01 02:01:19;;;;;;;0.65;0.60;;;15.00;99.90;;;;;;6194824;23;20387;-86
2022/07/01 02:03:46;;;;;;;;;;;15.00;99.90;;;;;;6220133;23;20012;-86
2022/07/01 02:06:16;;;;;;;0.73;0.73;;;15.00;99.90;;;;;;6194384;23;19922;-86
2022/07/01 02:08:42;;;;;;;0.73;0.70;;;15.00;99.90;;;;;;6170023;23;20017;-86
2022/07/01 02:11:07;;;;;;;3.20;1.60;;;15.00;99.90;;;;;;6169106;23;20075;-86
2022/07/01 02:13:34;;;;;;;1.65;1.42;;;15.00;99.90;;;;;;6145159;23;20020;-89
2022/07/01 02:15:59;;;;;;;0.82;0.65;;;15.00;99.90;;;;;;6194450;23;20026;-86
2022/07/01 02:18:25;;;;;;;0.43;0.43;;;14.90;99.90;;;;;;6169120;23;20016;-86
2022/07/01 02:20:51;;;;;;;1.27;0.80;;;15.00;99.90;;;;;;6219332;23;20318;-86
2022/07/01 02:23:17;;;;;;;1.53;0.80;;;14.90;99.90;;;;;;6194223;23;20020;-86
2022/07/01 02:25:43;;;;;;;0.68;0.68;;;14.90;99.90;;;;;;6219380;23;20318;-86
2022/07/01 02:28:09;;;;;;;3.58;0.90;;;14.90;99.90;;;;;;6169091;23;20047;-86
2022/07/01 02:30:36;;;;;;;1.40;1.10;;;14.90;99.90;;;;;;6219335;23;20012;-86
2022/07/01 02:33:05;;;;;;;;;;;14.90;99.90;;;;;;6194807;23;20476;-86
2022/07/01 02:35:36;;;;;;;0.70;0.70;;;14.90;99.90;;;;;;6194301;23;20036;-86
2022/07/01 02:38:02;;;;;;;0.70;0.70;;;14.80;99.90;;;;;;6170171;23;20035;-86
2022/07/01 02:40:28;;;;;;;1.20;1.02;;;14.90;99.90;;;;;;6169628;23;20020;-85
2022/07/01 02:42:54;;;;;;;1.83;0.87;;;14.80;99.90;;;;;;6193733;23;20016;-89
2022/07/01 02:45:20;;;;;;;0.70;0.70;;;14.80;99.90;;;;;;6194193;23;20254;-86
2022/07/01 02:47:46;;;;;;;1.65;1.13;;;14.80;99.90;;;;;;6194371;23;20100;-86
2022/07/01 02:50:13;;;;;;;1.20;0.90;;;14.80;99.90;;;;;;6194164;23;20020;-86
2022/07/01 02:52:40;;;;;;;1.23;0.60;;;14.80;99.90;;;;;;6169372;23;20472;-86
2022/07/01 02:55:08;;;;;;;3.47;1.45;;;14.80;99.90;;;;;;6169193;23;20456;-86
2022/07/01 02:57:34;;;;;;;2.78;0.95;;;14.80;99.90;;;;;;6194069;23;20027;-86
2022/07/01 03:00:00;;;;;;;1.05;0.80;;;14.80;99.90;;;;;;6193681;23;20043;-87
2022/07/01 03:02:26;;;;;;;0.80;0.80;;;14.80;99.90;;;;;;6169376;23;20018;-86
2022/07/01 03:04:53;;;;;;;0.73;0.73;;;14.70;99.90;;;;;;6194398;23;20020;-85
2022/07/01 03:07:19;;;;;;;;;;;14.80;99.90;;;;;;6219557;23;20059;-86
2022/07/01 03:09:45;;;;;;;1.00;0.90;;;14.70;99.90;;;;;;6219238;23;19951;-85
2022/07/01 03:12:24;;;;;;;0.98;0.98;;;14.70;99.90;;;;;;6169028;23;20021;-86
2022/07/01 03:14:57;;;;;;;1.55;1.45;;;14.70;99.90;;;;;;6194315;23;20016;-86
2022/07/01 03:17:24;;;;;;;2.60;1.10;;;14.70;99.90;;;;;;6219100;23;20107;-86
2022/07/01 03:19:51;;;;;;;;;;;14.60;99.90;;;;;;6169542;23;20020;-86
2022/07/01 03:22:18;;;;;;;0.93;0.85;;;14.60;99.90;;;;;;6193549;23;20248;-86
2022/07/01 03:24:43;;;;;;;;;;;14.60;99.90;;;;;;6219521;23;20070;-86
2022/07/01 03:27:09;;;;;;;2.15;1.58;;;14.60;99.90;;;;;;6193877;23;19915;-85
2022/07/01 03:29:35;;;;;;;1.40;1.30;;;14.50;99.90;;;;;;6219005;23;20306;-86
2022/07/01 03:32:01;;;;;;;2.30;1.60;;;14.60;99.90;;;;;;6194012;23;20020;-89
2022/07/01 03:34:26;;;;;;;3.07;2.00;;;14.50;99.90;;;;;;6144577;23;20031;-86
2022/07/01 03:36:52;;;;;;;2.23;1.57;;;14.50;99.90;;;;;;6194165;23;20016;-86
2022/07/01 03:39:18;;;;;;;7.70;1.87;;;14.50;99.90;;;;;;6193286;23;20020;-86
2022/07/01 03:41:44;;;;;;;2.30;2.10;;;14.50;99.90;;;;;;6219066;23;20051;-86
2022/07/01 03:44:09;;;;;;;4.20;2.38;;;14.50;99.90;;;;;;6169308;23;20019;-86
2022/07/01 03:46:35;;;;;;;2.87;2.63;;;14.00;99.90;;;;;;6194004;23;20023;-86
2022/07/01 03:49:02;;;;;;;1.60;1.50;;;14.50;99.90;;;;;;6219072;23;20012;-86
2022/07/01 03:51:27;;;;;;;;;;;14.50;99.90;;;;;;6194352;23;20038;-86
2022/07/01 03:56:37;;;;;;;4.75;2.90;;;14.50;99.90;;;;;;6220572;23;20350;-86
2022/07/01 03:59:03;;;;;;;6.83;2.80;;;14.50;99.90;;;;;;6170856;23;20020;-89
2022/07/01 04:01:29;;;;;;;5.20;3.47;;;14.50;99.90;;;;;;6145944;23;20012;-86
2022/07/01 04:03:54;;;;;;;4.93;3.80;;;14.50;99.90;;;;;;6170181;23;20012;-86
2022/07/01 04:06:21;;;;;;;6.30;3.70;;;14.50;99.90;;;;;;6170612;23;20024;-86
2022/07/01 04:08:47;;;;;;;6.30;4.25;;;14.50;99.90;;;;;;6170942;23;20016;-86
2022/07/01 04:11:13;;;;;;;7.72;4.45;;;14.50;99.90;;;;;;6220538;23;20066;-86
2022/07/01 04:13:39;;;;;;;6.00;4.38;;;14.50;99.90;;;;;;6195557;23;20012;-86
2022/07/01 04:16:05;;;;;;;8.07;4.80;;;14.50;99.90;;;;;;6220320;23;20066;-89
2022/07/01 04:18:34;;;;;;;5.72;4.45;;;14.50;99.90;;;;;;6195662;23;20099;-86
2022/07/01 04:23:44;;;;;;;7.90;4.97;;;14.50;99.90;;;;;;6178529;23;20028;-86
2022/07/01 04:26:09;;;;;;;8.17;4.97;;;14.40;99.90;;;;;;6195333;23;20322;-86
2022/07/01 04:28:35;;;;;;;8.23;4.67;;;14.50;99.90;;;;;;6171214;23;20540;-86
2022/07/01 04:31:01;;;;;;;9.77;4.90;;;14.50;99.90;;;;;;6195151;23;20023;-86
2022/07/01 04:33:27;;;;;;;8.10;6.30;;;14.50;99.90;;;;;;6170336;23;20020;-86
2022/07/01 04:35:52;;;;;;;12.23;6.63;;;14.50;99.90;;;;;;6220449;23;20063;-87
2022/07/01 04:38:18;;;;;;;6.50;5.70;;;14.50;99.90;;;;;;6170144;23;20016;-86
2022/07/01 04:41:58;;;;;;;10.13;6.10;;;14.50;99.90;;;;;;6195199;23;20024;-86
2022/07/01 04:43:29;;;;;;;8.40;6.40;;;14.50;99.90;;;;;;6198895;23;20105;-86
2022/07/01 04:45:55;;;;;;;10.03;6.83;;;14.50;99.90;;;;;;6195229;23;20020;-86
2022/07/01 04:48:21;;;;;;;9.87;7.60;;;14.50;99.90;;;;;;6195424;23;20016;-86
2022/07/01 04:50:49;;;;;;;13.52;8.52;;;14.50;99.90;;;;;;6220182;23;20052;-86
2022/07/01 04:53:18;;;;;;;11.48;8.57;;;14.50;99.90;;;;;;6195845;23;20024;-86
2022/07/01 04:55:43;;;;;;;14.33;8.03;;;14.40;99.90;;;;;;6195215;23;20023;-87
2022/07/01 04:58:09;;;;;;;13.97;8.80;;;14.40;99.90;;;;;;6170479;23;20020;-86
2022/07/01 05:00:35;;;;;;;13.97;9.40;;;14.40;99.90;;;;;;6170359;23;20047;-86
2022/07/01 05:03:00;;;;;;;14.93;9.10;;;14.40;99.90;;;;;;6220174;23;20149;-86
2022/07/01 05:05:26;;;;;;;15.17;9.60;;;14.40;99.90;;;;;;6194442;23;20074;-85
2022/07/01 05:07:52;;;;;;;14.60;9.77;;;14.40;99.90;;;;;;6170470;23;20388;-86
2022/07/01 05:10:17;;;;;;;15.67;9.23;;;14.40;99.90;;;;;;6220044;23;20384;-86
2022/07/01 05:12:43;;;;;;;17.37;10.33;;;14.30;99.90;;;;;;6195118;23;20065;-86
2022/07/01 05:15:09;;;;;;;14.25;10.05;;;14.40;99.90;;;;;;6195094;23;20016;-86
2022/07/01 05:23:03;;;;;;;17.20;9.93;;;14.40;99.90;;;;;;6198914;23;20028;-86
2022/07/01 05:25:29;;;;;;;17.13;11.13;;;14.40;99.90;;;;;;6169989;23;20016;-86
2022/07/01 05:27:55;;;;;;;14.13;10.27;;;14.40;99.90;;;;;;6194902;23;20055;-86
2022/07/01 05:30:24;;;;;;;12.80;8.90;;;14.40;99.90;;;;;;6194615;23;20247;-86
2022/07/01 05:32:50;;;;;;;17.98;10.82;;;14.40;99.90;;;;;;6219744;23;20272;-89
2022/07/01 05:35:16;;;;;;;15.30;10.20;;;14.40;99.90;;;;;;6219770;23;20504;-86
2022/07/01 05:37:42;;;;;;;17.33;10.53;;;14.40;99.90;;;;;;6220316;23;20463;-86
2022/07/01 05:40:08;;;;;;;16.58;11.20;;;14.40;99.90;;;;;;6170296;23;20020;-86
2022/07/01 05:42:34;;;;;;;;;;;14.40;99.90;;;;;;6220336;23;20020;-86
2022/07/01 05:45:00;;;;;;;15.88;9.60;;;14.40;99.90;;;;;;6169850;23;19954;-86
2022/07/01 05:47:25;;;;;;;18.83;12.55;;;14.40;99.90;;;;;;6219864;23;20016;-87
2022/07/01 05:49:51;;;;;;;18.80;11.73;;;14.40;99.90;;;;;;6245577;23;20023;-86
2022/07/01 05:52:17;;;;;;;18.17;11.43;;;14.50;99.90;;;;;;6219688;23;20024;-89
2022/07/01 05:54:43;;;;;;;17.15;11.07;;;14.40;99.90;;;;;;6145701;23;20027;-86
2022/07/01 05:57:09;;;;;;;21.77;11.93;;;14.40;99.90;;;;;;6195073;23;20016;-86
2022/07/01 05:59:35;;;;;;;18.75;11.90;;;14.50;99.90;;;;;;6170344;23;20095;-86
2022/07/01 06:02:01;;;;;;;18.98;12.55;;;14.50;99.90;;;;;;6169865;23;20523;-86
2022/07/01 06:04:27;;;;;;;22.92;13.63;;;14.50;99.90;;;;;;6145541;23;20130;-86
2022/07/01 06:06:52;;;;;;;18.60;10.20;;;14.50;99.90;;;;;;6194730;23;20026;-86
2022/07/01 06:09:18;;;;;;;17.53;11.33;;;14.50;99.90;;;;;;6219895;23;20012;-86
2022/07/01 06:11:44;;;;;;;21.73;12.43;;;14.60;99.90;;;;;;6169806;23;20020;-86
2022/07/01 06:14:12;;;;;;;22.97;12.37;;;14.60;99.90;;;;;;6194783;23;20027;-86
2022/07/01 06:16:37;;;;;;;16.38;11.60;;;13.80;99.90;;;;;;6169010;23;20020;-86
2022/07/01 06:19:06;;;;;;;16.87;11.33;;;14.80;99.90;;;;;;6194958;23;20020;-87
2022/07/01 06:21:32;;;;;;;19.85;10.70;;;14.70;99.90;;;;;;6194929;23;20748;-86
2022/07/01 06:23:58;;;;;;;17.20;10.90;;;14.70;99.90;;;;;;6194996;23;20463;-86
2022/07/01 06:26:27;;;;;;;17.07;11.17;;;14.70;99.90;;;;;;6220057;23;20019;-86
2022/07/01 06:33:03;;;;;;;16.38;10.85;;;14.70;99.90;;;;;;6246994;22;20020;-86
2022/07/01 06:35:28;;;;;;;22.23;10.88;;;14.80;99.90;;;;;;6195106;23;20452;-88
2022/07/01 06:37:54;;;;;;;17.53;11.87;;;14.70;99.90;;;;;;6219260;23;20024;-87
2022/07/01 06:40:20;;;;;;;17.35;11.00;;;14.80;99.90;;;;;;6169527;23;20054;-87
2022/07/01 06:42:45;;;;;;;17.80;11.60;;;14.70;99.90;;;;;;6218690;23;20020;-87
2022/07/01 06:45:11;;;;;;;16.60;10.70;;;14.70;99.90;;;;;;6193825;23;20020;-87
2022/07/01 06:47:37;;;;;;;21.47;12.57;;;14.70;99.90;;;;;;6168847;23;20016;-89
2022/07/01 06:50:03;;;;;;;18.13;11.90;;;14.90;99.90;;;;;;6218422;23;20050;-85
2022/07/01 06:52:29;;;;;;;;;;;14.80;99.90;;;;;;6168311;23;20537;-85
2022/07/01 06:54:55;;;;;;;14.70;9.95;;;14.80;99.90;;;;;;6217201;23;19951;-89
2022/07/01 06:57:47;;;;;;;16.00;10.90;;;14.70;99.90;;;;;;6167632;23;20016;-90
2022/07/01 07:00:13;;;;;;;15.60;10.82;;;14.70;99.90;;;;;;6149552;23;20095;-89
2022/07/01 07:03:20;;;;;;;15.25;11.20;;;14.70;99.90;;;;;;6191990;23;20012;-88
2022/07/01 07:06:04;;;;;;;16.25;10.55;;;14.80;99.90;;;;;;6216111;23;20016;-89
2022/07/01 07:08:33;;;;;;;14.52;10.50;;;14.70;99.90;;;;;;6216831;23;20028;-91
2022/07/01 07:10:59;;;;;;;17.63;12.20;;;14.70;99.90;;;;;;6192380;23;20066;-92
2022/07/01 07:13:25;;;;;;;14.82;11.32;;;14.70;99.90;;;;;;6218252;23;20028;-86
2022/07/01 07:15:51;;;;;;;19.42;11.50;;;14.70;99.90;;;;;;6217312;23;20445;-87
2022/07/01 07:18:17;;;;;;;16.25;10.85;;;14.80;99.90;;;;;;6217663;23;20024;-86
2022/07/01 07:20:43;;;;;;;19.17;11.48;;;14.80;99.90;;;;;;6193135;23;20043;-85
2022/07/01 07:23:27;;;;;;;17.85;12.65;;;14.80;99.90;;;;;;6218090;23;20012;-85
2022/07/01 07:29:34;;;;;;;15.68;10.10;;;14.90;99.90;;;;;;6245068;23;20392;-87
2022/07/01 07:31:59;;;;;;;16.23;10.53;;;14.80;99.90;;;;;;6218563;23;20020;-86
2022/07/01 07:34:25;;;;;;;18.03;10.23;;;14.90;99.90;;;;;;6169032;23;20506;-88
2022/07/01 07:36:51;;;;;;;19.77;11.03;;;14.90;99.90;;;;;;6193398;23;20020;-87
2022/07/01 07:39:16;;;;;;;16.80;11.07;;;14.90;99.90;;;;;;6218825;23;20020;-87
2022/07/01 07:41:42;;;;;;;15.57;10.63;;;14.80;99.90;;;;;;6192995;23;20012;-85
2022/07/01 07:44:08;;;;;;;15.23;10.77;;;14.90;99.90;;;;;;6218613;23;20015;-85
2022/07/01 07:46:33;;;;;;;17.63;11.40;;;14.90;99.90;;;;;;6218075;23;20449;-85
2022/07/01 07:48:59;;;;;;;16.17;12.20;;;14.90;99.90;;;;;;6168859;23;20023;-86
2022/07/01 07:51:26;;;;;;;15.57;10.73;;;15.00;99.90;;;;;;6122241;23;1101174;-86
2022/07/01 07:53:52;;;;;;;15.45;10.63;;;15.10;99.90;;;;;;6219884;23;20020;-87
2022/07/01 07:56:17;;;;;;;14.10;10.52;;;15.20;99.90;;;;;;6220139;23;20074;-86
2022/07/01 07:58:43;;;;;;;15.27;9.83;;;15.40;99.90;;;;;;6219908;23;20012;-86
2022/07/01 08:01:10;;;;;;;14.98;9.73;;;15.40;99.90;;;;;;6195171;23;20023;-86
2022/07/01 08:03:35;;;;;;;12.90;9.93;;;15.50;99.90;;;;;;6195191;23;20360;-91
2022/07/01 08:06:01;;;;;;;14.07;10.02;;;15.50;99.90;;;;;;6195168;23;20077;-86
2022/07/01 08:08:27;;;;;;;17.57;10.60;;;15.50;99.90;;;;;;6195356;23;20023;-86
2022/07/01 08:10:53;;;;;;;14.10;9.20;;;15.50;99.90;;;;;;6219109;23;20298;-87
2022/07/01 08:13:19;;;;;;;12.93;9.27;;;15.60;99.90;;;;;;6170394;23;20024;-86
2022/07/01 08:15:45;;;;;;;16.88;10.50;;;15.50;99.90;;;;;;6194504;23;20393;-86
2022/07/01 08:18:10;;;;;;;12.60;8.33;;;15.60;99.90;;;;;;6220189;23;20051;-86
2022/07/01 08:20:36;;;;;;;15.33;9.40;;;15.60;99.90;;;;;;6246667;23;20143;-91
2022/07/01 08:23:02;;;;;;;10.83;9.17;;;15.60;99.90;;;;;;6220628;23;20050;-90
2022/07/01 08:25:28;;;;;;;13.33;8.20;;;15.70;99.90;;;;;;6195821;23;20247;-88
2022/07/01 08:27:53;;;;;;;13.53;8.47;;;15.70;99.90;;;;;;6195125;23;20023;-90
2022/07/01 08:30:19;;;;;;;13.52;8.90;;;15.80;99.90;;;;;;6195027;23;20066;-91
2022/07/01 08:32:47;;;;;;;14.10;9.70;;;15.90;99.90;;;;;;6170105;23;20488;-90
2022/07/01 08:35:13;;;;;;;13.02;8.57;;;16.00;99.90;;;;;;6195616;23;20258;-90
2022/07/01 08:37:42;;;;;;;11.05;7.53;;;16.00;99.90;;;;;;6195683;23;20337;-93
2022/07/01 08:40:08;;;;;;;10.45;7.90;;;16.20;99.90;;;;;;6221154;23;20468;-90
2022/07/01 08:42:42;;;;;;;12.63;7.65;;;16.20;99.90;;;;;;6195889;23;20099;-87
2022/07/01 08:45:09;;;;;;;8.48;6.40;;;16.30;99.90;;;;;;6220922;23;20475;-89
2022/07/01 08:48:00;;;;;;;13.50;7.82;;;16.20;99.90;;;;;;6220826;23;20098;-89
2022/07/01 08:50:27;;;;;;;8.43;7.10;;;16.40;99.90;;;;;;6194798;23;20514;-88
2022/07/01 08:52:53;;;;;;;13.43;6.50;;;16.50;99.90;;;;;;6219673;23;20020;-89
2022/07/01 08:55:20;;;;;;;11.60;8.25;;;16.60;99.90;;;;;;6219802;23;20016;-86
2022/07/01 08:57:47;;;;;;;12.55;7.03;;;16.60;99.90;;;;;;6170077;23;20318;-87
2022/07/01 09:00:13;;;;;;;9.35;6.50;;;16.60;99.90;;;;;;6219800;23;20124;-88
2022/07/01 09:02:56;;;;;;;8.43;5.65;;;16.70;99.90;;;;;;6194519;23;20051;-89
2022/07/01 09:05:24;;;;;;;9.07;7.15;;;16.80;99.90;;;;;;6194460;23;20028;-88
2022/07/01 09:08:05;;;;;;;8.60;6.07;;;16.90;99.90;;;;;;6194129;23;20055;-86
2022/07/01 09:10:34;;;;;;;8.82;6.47;;;16.90;99.90;;;;;;6219432;23;20070;-86
2022/07/01 09:13:08;;;;;;;11.60;6.85;;;17.10;99.90;;;;;;6193973;23;20095;-86
2022/07/01 09:15:35;;;;;;;7.53;6.43;;;17.20;99.90;;;;;;6194385;23;20027;-86
2022/07/01 09:18:15;;;;;;;8.68;6.03;;;17.20;99.90;;;;;;6194474;23;20028;-85
2022/07/01 09:20:47;;;;;;;9.80;6.82;;;17.30;99.90;;;;;;6220274;23;20044;-84
2022/07/01 09:23:15;;;;;;;8.07;5.15;;;17.20;99.90;;;;;;6194709;23;20020;-85
2022/07/01 09:25:52;;;;;;;12.70;6.68;;;17.20;99.90;;;;;;6221250;23;20016;-86
2022/07/01 09:28:19;;;;;;;7.85;5.82;;;17.20;99.90;;;;;;6194684;23;20020;-90
2022/07/01 09:30:59;;;;;;;9.40;6.32;;;17.20;99.90;;;;;;6193926;23;20050;-83
2022/07/01 09:33:27;;;;;;;7.40;5.32;;;17.30;99.90;;;;;;6221975;23;20020;-85
2022/07/01 09:35:53;;;;;;;5.85;4.60;;;17.30;99.90;;;;;;6218806;23;20464;-86
2022/07/01 09:38:25;;;;;;;6.40;3.92;;;17.20;99.90;;;;;;6219124;23;20012;-84
2022/07/01 09:40:59;;;;;;;5.43;4.20;;;17.20;99.90;;;;;;6219014;23;20063;-86
2022/07/01 09:43:30;;;;;;;7.82;4.80;;;17.20;99.90;;;;;;6193631;23;20360;-86
2022/07/01 09:46:10;;;;;;;7.85;5.20;;;17.20;99.90;;;;;;6218565;23;20020;-86
2022/07/01 09:48:35;;;;;;;6.30;4.40;;;17.10;99.90;;;;;;6194005;23;20019;-85
2022/07/01 09:51:06;;;;;;;6.80;4.33;;;17.10;99.90;;;;;;6238466;23;20028;-86
2022/07/01 09:53:32;;;;;;;8.27;4.50;;;17.10;99.90;;;;;;6213054;23;20024;-85
2022/07/01 09:55:58;;;;;;;6.45;5.43;;;17.10;99.90;;;;;;6213324;23;20087;-85
2022/07/01 09:58:24;;;;;;;5.80;4.82;;;17.10;99.90;;;;;;6191491;23;20035;-85
2022/07/01 10:00:52;;;;;;;8.23;4.90;;;17.10;99.90;;;;;;6190986;23;20013;-91
2022/07/01 10:03:18;;;;;;;8.30;5.70;;;17.10;99.90;;;;;;6188740;23;20106;-86
2022/07/01 10:05:49;;;;;;;5.50;4.43;;;17.10;99.90;;;;;;6214109;23;20052;-86
2022/07/01 10:08:33;;;;;;;6.57;4.72;;;17.10;99.90;;;;;;6213130;23;20062;-85
2022/07/01 10:11:23;;;;;;;7.05;4.88;;;17.10;99.90;;;;;;6213496;23;20016;-88
2022/07/01 10:13:49;;;;;;;8.00;4.25;;;17.20;99.90;;;;;;6188576;23;20115;-86
2022/07/01 10:16:20;;;;;;;7.10;4.90;;;17.40;99.90;;;;;;6188199;23;20027;-88
2022/07/01 10:18:46;;;;;;;5.38;3.88;;;17.50;99.90;;;;;;6213327;23;20098;-88
2022/07/01 10:21:27;;;;;;;9.45;3.65;;;17.80;99.90;;;;;;6212717;23;20021;-86
2022/07/01 10:23:53;;;;;;;5.55;4.68;;;17.70;99.90;;;;;;6188638;23;20012;-89
2022/07/01 10:26:19;;;;;;;5.78;4.40;;;17.60;99.90;;;;;;6188236;23;20016;-87
2022/07/01 10:28:47;;;;;;;6.28;4.18;;;17.60;99.90;;;;;;6213516;23;20062;-87
2022/07/01 10:31:17;;;;;;;7.97;4.38;;;17.60;99.90;;;;;;6212777;23;20373;-85
2022/07/01 10:33:57;;;;;;;4.43;4.03;;;17.80;99.90;;;;;;6187876;23;20021;-86
2022/07/01 10:36:22;;;;;;;4.53;3.30;;;17.90;99.90;;;;;;6213324;23;20017;-85
2022/07/01 10:39:06;;;;;;;4.88;3.50;;;17.90;99.90;;;;;;6213844;23;20340;-85
2022/07/01 10:41:59;;;;;;;3.33;3.03;;;18.00;99.90;;;;;;6213751;23;20445;-85
2022/07/01 10:44:26;;;;;;;4.45;3.45;;;18.00;99.90;;;;;;6182209;23;20020;-85
2022/07/01 10:47:14;;;;;;;5.40;3.15;;;18.10;99.90;;;;;;6188012;23;20060;-85
2022/07/01 10:49:40;;;;;;;9.15;3.88;;;18.30;99.90;;;;;;6213871;23;20017;-84
2022/07/01 10:52:11;;;;;;;3.83;2.80;;;18.40;99.90;;;;;;6188754;23;20390;-86
2022/07/01 10:54:38;;;;;;;4.70;2.72;;;18.40;99.90;;;;;;6188602;23;20023;-85
2022/07/01 10:57:19;;;;;;;3.70;2.63;;;18.40;99.90;;;;;;6188446;23;20021;-86
2022/07/01 10:59:53;;;;;;;4.63;3.20;;;18.30;99.90;;;;;;6213282;23;20036;-87
2022/07/01 11:02:24;;;;;;;5.57;2.85;;;18.20;99.90;;;;;;6188581;23;20485;-86
2022/07/01 11:04:53;;;;;;;3.03;2.75;;;18.10;99.90;;;;;;6166401;23;20052;-86
2022/07/01 11:07:19;;;;;;;3.28;2.35;;;18.10;99.90;;;;;;6189169;23;20016;-86
2022/07/01 11:09:45;;;;;;;5.05;3.22;;;18.30;99.90;;;;;;6165914;23;20475;-88
2022/07/01 11:12:11;;;;;;;3.33;3.03;;;18.40;99.90;;;;;;6190597;23;20051;-85
2022/07/01 11:14:41;;;;;;;3.42;2.67;;;18.60;99.90;;;;;;6190595;23;20043;-84
2022/07/01 11:17:09;;;;;;;4.78;2.97;;;18.70;99.90;;;;;;6217107;23;20024;-87
2022/07/01 11:19:35;;;;;;;2.95;2.63;;;18.80;99.90;;;;;;6215271;23;20364;-85
2022/07/01 11:22:02;;;;;;;;;;;18.90;99.90;;;;;;6191479;23;20016;-85
2022/07/01 11:24:28;;;;;;;6.80;2.90;;;19.00;99.90;;;;;;6216000;23;19915;-85
2022/07/01 11:27:07;;;;;;;2.40;2.20;;;18.90;99.90;;;;;;6191181;23;20099;-85
2022/07/01 11:29:34;;;;;;;4.47;2.45;;;18.90;99.90;;;;;;6190928;23;20071;-83
2022/07/01 11:31:59;;;;;;;7.47;4.15;;;19.00;99.90;;;;;;6216992;23;20024;-84
2022/07/01 11:34:28;;;;;;;3.22;2.72;;;19.00;99.90;;;;;;6215754;23;20088;-84
2022/07/01 11:39:41;;;;;;;2.30;2.10;;;19.20;99.90;;;;;;6215729;23;20531;-86
2022/07/01 11:42:09;;;;;;;2.50;2.25;;;19.20;99.90;;;;;;6217250;23;20024;-85
2022/07/01 11:44:41;;;;;;;2.55;1.90;;;19.20;99.90;;;;;;6216073;23;20424;-84
2022/07/01 11:47:09;;;;;;;3.40;2.47;;;19.30;99.90;;;;;;6215613;23;20020;-90
2022/07/01 11:49:47;;;;;;;2.92;2.33;;;19.40;99.90;;;;;;6215775;23;20024;-84
2022/07/01 11:52:13;;;;;;;2.22;1.80;;;19.30;99.90;;;;;;6215553;23;20353;-86
2022/07/01 11:54:40;;;;;;;1.83;1.65;;;19.30;99.90;;;;;;6215065;23;20035;-86
2022/07/01 11:57:21;;;;;;;5.22;2.00;;;19.30;99.90;;;;;;6215326;23;20446;-90
2022/07/01 11:59:48;;;;;;;3.10;2.35;;;19.20;99.90;;;;;;6215798;23;20032;-85
2022/07/01 12:02:16;;;;;;;2.33;1.90;;;19.10;99.90;;;;;;6215035;23;20448;-83
2022/07/01 12:04:43;;;;;;;3.58;2.15;;;19.00;99.90;;;;;;6190476;23;20457;-85
2022/07/01 12:07:10;;;;;;;3.35;1.55;;;18.80;99.90;;;;;;6217158;23;20079;-85
2022/07/01 12:09:37;;;;;;;1.52;1.42;;;18.80;99.90;;;;;;6190945;23;20020;-84
2022/07/01 12:12:04;;;;;;;8.60;3.75;;;18.70;99.90;;;;;;6215033;23;20447;-85
2022/07/01 12:14:34;;;;;;;2.47;2.20;;;18.90;99.90;;;;;;6214763;23;20055;-90
2022/07/01 12:17:03;;;;;;;2.42;1.52;;;18.80;99.90;;;;;;6215434;23;20323;-84
2022/07/01 12:19:41;;;;;;;3.80;1.40;;;18.90;99.90;;;;;;6164629;23;20380;-83
2022/07/01 12:22:12;;;;;;;2.97;1.60;;;19.00;99.90;;;;;;6167795;23;20024;-83
2022/07/01 12:24:38;;;;;;;2.38;1.65;;;19.00;99.90;;;;;;6215541;23;20051;-83
2022/07/01 12:27:08;;;;;;;;;;;18.90;99.90;;;;;;6214959;23;20025;-83
2022/07/01 12:29:42;;;;;;;1.92;1.20;;;18.90;99.90;;;;;;6213944;23;19916;-83
2022/07/01 12:32:11;;;;;;;1.60;1.30;;;18.90;99.90;;;;;;6189196;23;20048;-86
2022/07/01 12:34:45;;;;;;;3.38;1.30;;;18.90;99.90;;;;;;6215532;23;20016;-84
2022/07/01 12:37:13;;;;;;;1.75;1.30;;;18.80;99.90;;;;;;6189049;23;20025;-91
2022/07/01 12:39:49;;;;;;;2.75;1.15;;;18.70;99.90;;;;;;6189582;23;20021;-83
2022/07/01 12:42:29;;;;;;;0.85;0.85;;;18.70;99.90;;;;;;6214427;23;20024;-87
2022/07/01 12:44:57;;;;;;;2.75;1.25;;;18.70;99.90;;;;;;6189079;23;20090;-82
2022/07/01 12:47:34;;;;;;;3.40;1.30;;;18.90;99.90;;;;;;6188845;23;20063;-83
2022/07/01 12:50:20;;;;;;;0.80;0.80;;;19.10;99.90;;;;;;6226584;23;20051;-83
2022/07/01 12:53:07;;;;;;;4.30;1.20;;;19.30;99.90;;;;;;6245718;23;20020;-82
2022/07/01 12:55:37;;;;;;;1.75;1.52;;;19.50;99.90;;;;;;6218387;23;20054;-85
2022/07/01 12:58:07;;;;;;;0.82;0.82;;;19.40;99.90;;;;;;6246074;23;20047;-84
2022/07/01 13:00:33;;;;;;;1.05;0.80;;;19.40;99.90;;;;;;6245294;23;20028;-84
2022/07/01 13:03:00;;;;;;;;;;;19.40;99.90;;;;;;6219091;23;20047;-85
2022/07/01 13:05:26;;;;;;;1.23;0.90;;;19.50;99.90;;;;;;6245333;23;19915;-85
2022/07/01 13:07:52;;;;;;;1.60;1.10;;;19.70;99.90;;;;;;6219110;23;20055;-84
2022/07/01 13:10:19;;;;;;;1.42;0.98;;;19.70;99.90;;;;;;6218271;23;20020;-89
2022/07/01 13:12:45;;;;;;;;;;;19.80;99.90;;;;;;6219093;23;20016;-85